Time;durP1;ratioP1;P1;durP2;ratioP2;P2;SDS_P1;SDS_P2;PMS_P1;PMS_P2;Temp;Humidity;BMP_temperature;BMP_pressure;BME280_temperature;BME280_humidity;BME280_pressure;Samples;Min_cycle;Max_cycle;Signal;HPM_P1;HPM_P2
2022/06/21 00:02:13;;;;;;;3.72;2.78;;;23.20;98.20;;;;;;6112820;23;20098;-71
2022/06/21 00:04:39;;;;;;;3.60;2.28;;;23.20;97.90;;;;;;6087618;23;20115;-70
2022/06/21 00:07:06;;;;;;;4.95;2.33;;;23.30;97.40;;;;;;6109279;23;20020;-72
2022/06/21 00:09:32;;;;;;;6.35;2.53;;;23.30;97.10;;;;;;6110690;23;20394;-68
2022/06/21 00:11:58;;;;;;;5.00;1.70;;;23.40;96.80;;;;;;6113245;23;19998;-69
2022/06/21 00:14:23;;;;;;;2.25;1.70;;;23.40;95.20;;;;;;6114184;23;20071;-69
2022/06/21 00:16:49;;;;;;;3.17;1.42;;;23.60;93.80;;;;;;6112373;23;20407;-68
2022/06/21 00:19:24;;;;;;;5.32;1.42;;;23.70;92.60;;;;;;6114052;23;20009;-70
2022/06/21 00:21:50;;;;;;;4.93;1.50;;;23.70;91.40;;;;;;6112228;23;20006;-69
2022/06/21 00:24:17;;;;;;;2.72;1.48;;;23.70;91.20;;;;;;6113024;23;20029;-70
2022/06/21 00:26:44;;;;;;;1.50;1.40;;;23.80;91.10;;;;;;6108163;23;20752;-67
2022/06/21 00:29:11;;;;;;;2.38;1.50;;;23.80;91.60;;;;;;6112881;23;20002;-69
2022/06/21 00:31:41;;;;;;;4.57;1.38;;;23.80;91.60;;;;;;6110632;23;20134;-70
2022/06/21 00:34:20;;;;;;;4.05;1.40;;;23.70;91.60;;;;;;6079830;23;20579;-68
2022/06/21 00:36:47;;;;;;;1.65;1.55;;;23.60;91.60;;;;;;6083622;23;20132;-67
2022/06/21 00:39:15;;;;;;;7.00;1.60;;;23.60;91.60;;;;;;6081622;23;19994;-67
2022/06/21 00:42:12;;;;;;;2.75;1.60;;;23.60;91.40;;;;;;6077265;23;20458;-69
2022/06/21 00:44:48;;;;;;;2.78;1.77;;;23.50;92.10;;;;;;6079809;23;20010;-68
2022/06/21 00:47:17;;;;;;;3.65;1.50;;;23.40;92.20;;;;;;6083434;23;20002;-67
2022/06/21 00:49:57;;;;;;;2.35;1.30;;;23.40;92.50;;;;;;6083781;23;20033;-68
2022/06/21 00:52:37;;;;;;;2.90;1.52;;;23.30;92.40;;;;;;6084160;23;20010;-68
2022/06/21 00:55:10;;;;;;;4.40;1.60;;;23.30;92.20;;;;;;6084093;23;20094;-67
2022/06/21 00:57:43;;;;;;;2.42;1.50;;;23.20;92.10;;;;;;6086126;23;20011;-69
2022/06/21 01:00:39;;;;;;;2.97;1.40;;;23.20;92.30;;;;;;6083047;23;20011;-68
2022/06/21 01:03:18;;;;;;;4.53;1.50;;;23.10;92.30;;;;;;6082047;23;20010;-66
2022/06/21 01:05:46;;;;;;;1.48;1.25;;;23.00;92.40;;;;;;6084720;23;20077;-66
2022/06/21 01:08:19;;;;;;;3.30;1.50;;;23.00;92.70;;;;;;6084067;23;20030;-73
2022/06/21 01:10:48;;;;;;;4.47;1.42;;;22.90;92.60;;;;;;6083789;23;20337;-70
2022/06/21 01:13:21;;;;;;;2.80;1.60;;;22.80;92.90;;;;;;6082601;23;20073;-72
2022/06/21 01:15:49;;;;;;;2.80;1.60;;;22.80;93.20;;;;;;6085462;23;20024;-69
2022/06/21 01:18:18;;;;;;;2.75;1.55;;;22.80;94.00;;;;;;6083742;23;20645;-71
2022/06/21 01:20:47;;;;;;;4.47;1.77;;;22.70;94.40;;;;;;6083421;23;20006;-73
2022/06/21 01:23:41;;;;;;;2.92;2.00;;;22.60;94.60;;;;;;6083973;23;20395;-71
2022/06/21 01:26:37;;;;;;;1.75;1.58;;;22.50;95.10;;;;;;6084883;23;20010;-70
2022/06/21 01:29:05;;;;;;;3.08;2.10;;;22.40;95.70;;;;;;6083564;23;20018;-68
2022/06/21 01:31:33;;;;;;;4.93;1.70;;;22.30;96.30;;;;;;6083645;23;20077;-70
2022/06/21 01:33:59;;;;;;;3.25;1.70;;;22.20;96.50;;;;;;6094449;23;20087;-68
2022/06/21 01:36:31;;;;;;;2.75;1.90;;;22.10;96.90;;;;;;6108279;23;20306;-69
2022/06/21 01:39:04;;;;;;;4.00;1.90;;;22.10;97.30;;;;;;6109130;23;20392;-68
2022/06/21 01:42:02;;;;;;;3.17;2.00;;;21.90;97.50;;;;;;6083499;23;20006;-70
2022/06/21 01:44:41;;;;;;;5.72;2.00;;;21.80;97.40;;;;;;6101334;23;20020;-69
2022/06/21 01:47:12;;;;;;;2.30;1.90;;;21.80;97.60;;;;;;6112006;23;20002;-69
2022/06/21 01:49:45;;;;;;;1.95;1.70;;;21.80;98.40;;;;;;6112996;23;20021;-72
2022/06/21 01:52:16;;;;;;;2.95;2.15;;;21.70;98.30;;;;;;6111615;23;20652;-70
2022/06/21 01:54:46;;;;;;;3.67;1.70;;;21.70;98.80;;;;;;6110472;23;20570;-71
2022/06/21 01:57:13;;;;;;;4.07;1.80;;;21.60;98.20;;;;;;6112055;23;20002;-67
2022/06/21 01:59:48;;;;;;;6.43;2.00;;;21.50;98.40;;;;;;6111965;23;20102;-71
2022/06/21 02:02:20;;;;;;;3.03;1.65;;;21.40;98.60;;;;;;6109575;23;20010;-72
2022/06/21 02:05:00;;;;;;;3.50;1.73;;;21.40;98.60;;;;;;6112273;23;20010;-70
2022/06/21 02:07:33;;;;;;;3.63;1.95;;;21.30;98.30;;;;;;6110693;23;20014;-68
2022/06/21 02:10:09;;;;;;;4.72;2.20;;;21.30;98.10;;;;;;6109860;23;20006;-69
2022/06/21 02:12:38;;;;;;;2.55;1.88;;;21.20;98.10;;;;;;6111826;23;20006;-67
2022/06/21 02:15:07;;;;;;;3.28;2.22;;;21.20;98.20;;;;;;6109851;23;20155;-67
2022/06/21 02:17:40;;;;;;;2.08;1.67;;;21.20;98.20;;;;;;6108619;23;19998;-67
2022/06/21 02:20:21;;;;;;;3.20;1.98;;;21.20;98.10;;;;;;6108871;23;20490;-68
2022/06/21 02:22:47;;;;;;;2.15;1.90;;;21.20;98.00;;;;;;6110800;23;20016;-70
2022/06/21 02:25:18;;;;;;;3.33;2.03;;;21.20;98.00;;;;;;6113345;23;20002;-70
2022/06/21 02:27:45;;;;;;;2.78;1.75;;;21.20;98.00;;;;;;6111434;23;20017;-73
2022/06/21 02:30:24;;;;;;;5.53;2.20;;;21.10;98.20;;;;;;6112649;23;20032;-68
2022/06/21 02:32:52;;;;;;;2.38;2.08;;;21.00;98.40;;;;;;6110568;23;20041;-68
2022/06/21 02:35:44;;;;;;;2.25;2.00;;;21.00;98.40;;;;;;6110641;23;20471;-72
2022/06/21 02:38:15;;;;;;;3.10;1.85;;;21.00;98.40;;;;;;6065391;23;20060;-72
2022/06/21 02:40:45;;;;;;;3.92;2.58;;;20.80;98.20;;;;;;6110401;23;20010;-68
2022/06/21 02:43:17;;;;;;;3.75;1.83;;;20.80;98.70;;;;;;6112249;23;20002;-69
2022/06/21 02:46:01;;;;;;;4.03;2.00;;;20.80;98.40;;;;;;6112406;23;20001;-72
2022/06/21 02:48:34;;;;;;;1.58;1.40;;;20.70;97.40;;;;;;6110201;23;20008;-71
2022/06/21 02:51:08;;;;;;;2.47;1.75;;;20.60;97.10;;;;;;6112418;23;20732;-70
2022/06/21 02:53:42;;;;;;;2.72;1.30;;;20.60;96.80;;;;;;6111414;23;20006;-71
2022/06/21 02:56:19;;;;;;;1.25;1.02;;;20.60;96.70;;;;;;6112182;23;20110;-72
2022/06/21 02:58:57;;;;;;;2.78;1.50;;;20.60;96.10;;;;;;6112740;23;19998;-71
2022/06/21 03:01:31;;;;;;;2.13;1.40;;;20.60;95.90;;;;;;6112012;23;20010;-70
2022/06/21 03:03:58;;;;;;;1.52;1.20;;;20.50;95.40;;;;;;6111366;23;20006;-68
2022/06/21 03:06:26;;;;;;;1.60;1.50;;;20.40;95.30;;;;;;6110855;23;20002;-69
2022/06/21 03:08:57;;;;;;;1.50;1.13;;;20.30;95.30;;;;;;6110939;23;20006;-68
2022/06/21 03:11:27;;;;;;;3.95;1.10;;;20.30;94.90;;;;;;6109696;23;20130;-68
2022/06/21 03:13:54;;;;;;;0.98;0.88;;;20.20;95.00;;;;;;6107622;23;20013;-68
2022/06/21 03:16:22;;;;;;;1.38;0.95;;;20.10;95.00;;;;;;6109642;23;20032;-68
2022/06/21 03:18:51;;;;;;;1.77;1.02;;;20.10;94.80;;;;;;6110428;23;20056;-69
2022/06/21 03:21:40;;;;;;;1.40;1.00;;;20.20;94.80;;;;;;6108452;23;20463;-70
2022/06/21 03:24:15;;;;;;;1.02;0.90;;;20.10;94.90;;;;;;6082491;23;20013;-71
2022/06/21 03:26:44;;;;;;;2.80;0.80;;;20.10;94.50;;;;;;6110144;23;20002;-69
2022/06/21 03:29:10;;;;;;;4.38;1.10;;;20.00;93.90;;;;;;6116023;23;20006;-69
2022/06/21 03:31:39;;;;;;;2.75;1.08;;;19.90;94.30;;;;;;6113936;23;20041;-69
2022/06/21 03:34:08;;;;;;;0.90;0.80;;;19.90;94.50;;;;;;6112256;23;20060;-69
2022/06/21 03:36:35;;;;;;;2.65;0.73;;;19.90;93.40;;;;;;6087761;23;20013;-70
2022/06/21 03:39:06;;;;;;;0.98;0.45;;;19.90;93.10;;;;;;6114052;23;20088;-70
2022/06/21 03:41:44;;;;;;;1.15;0.68;;;20.00;92.40;;;;;;6112416;23;20088;-69
2022/06/21 03:44:22;;;;;;;2.53;0.60;;;19.90;92.00;;;;;;6113415;23;20037;-69
2022/06/21 03:47:00;;;;;;;0.98;0.43;;;19.80;90.50;;;;;;6112136;23;20010;-68
2022/06/21 03:49:49;;;;;;;0.45;0.45;;;19.70;88.50;;;;;;6113550;23;20028;-69
2022/06/21 03:52:43;;;;;;;1.88;0.60;;;19.60;87.40;;;;;;6112240;23;20006;-70
2022/06/21 03:55:08;;;;;;;0.95;0.32;;;19.60;88.40;;;;;;6112725;23;20057;-68
2022/06/21 03:57:36;;;;;;;1.35;0.68;;;19.60;89.00;;;;;;6111022;23;20033;-70
2022/06/21 04:00:09;;;;;;;0.75;0.22;;;19.60;86.40;;;;;;6114613;23;20440;-72
2022/06/21 04:02:46;;;;;;;0.47;0.30;;;19.60;79.60;;;;;;6111762;23;20001;-71
2022/06/21 04:05:45;;;;;;;0.57;0.20;;;19.50;74.00;;;;;;6114603;23;20262;-69
2022/06/21 04:08:50;;;;;;;0.20;0.20;;;19.40;72.80;;;;;;6064915;23;20463;-68
2022/06/21 04:12:05;;;;;;;0.50;0.22;;;19.30;75.00;;;;;;6091341;23;20105;-67
2022/06/21 04:15:02;;;;;;;0.52;0.40;;;19.50;76.90;;;;;;6093561;23;20009;-72
2022/06/21 04:17:51;;;;;;;2.40;0.30;;;19.60;72.60;;;;;;6111065;23;20014;-69
2022/06/21 04:20:34;;;;;;;4.32;0.30;;;19.70;72.20;;;;;;6113590;23;20005;-69
2022/06/21 04:23:17;;;;;;;0.28;0.22;;;19.70;65.40;;;;;;6113318;23;20002;-68
2022/06/21 04:25:52;;;;;;;1.00;0.28;;;19.80;65.40;;;;;;6114245;23;20081;-68
2022/06/21 04:28:26;;;;;;;1.13;0.30;;;19.80;61.50;;;;;;6111845;23;20037;-69
2022/06/21 04:31:03;;;;;;;1.13;0.30;;;19.80;62.80;;;;;;6112440;23;20442;-68
2022/06/21 04:33:37;;;;;;;3.28;0.95;;;19.80;59.60;;;;;;6111671;23;20087;-69
2022/06/21 04:36:24;;;;;;;0.28;0.20;;;19.90;56.70;;;;;;6115707;23;20638;-68
2022/06/21 04:38:53;;;;;;;1.45;0.20;;;20.00;56.30;;;;;;6110098;23;20057;-68
2022/06/21 04:41:38;;;;;;;1.70;0.20;;;20.00;57.00;;;;;;6112553;23;20036;-71
2022/06/21 04:44:33;;;;;;;2.05;0.40;;;20.10;55.80;;;;;;6112238;23;20012;-66
2022/06/21 04:47:23;;;;;;;0.80;0.25;;;20.10;54.30;;;;;;6110790;23;20028;-68
2022/06/21 04:50:13;;;;;;;0.32;0.22;;;20.20;57.10;;;;;;6114341;23;20005;-70
2022/06/21 04:53:06;;;;;;;1.17;0.40;;;20.20;57.10;;;;;;6114155;23;20025;-69
2022/06/21 04:55:59;;;;;;;0.65;0.20;;;20.30;56.90;;;;;;6113000;23;20021;-68
2022/06/21 04:58:26;;;;;;;2.17;0.38;;;20.20;55.60;;;;;;6113191;23;20467;-67
2022/06/21 05:00:52;;;;;;;0.70;0.25;;;20.40;54.70;;;;;;6107208;23;20588;-70
2022/06/21 05:03:38;;;;;;;2.00;0.20;;;20.40;54.70;;;;;;6110638;23;20029;-68
2022/06/21 05:06:04;;;;;;;2.10;0.13;;;20.40;50.70;;;;;;6113326;23;20072;-67
2022/06/21 05:08:31;;;;;;;3.03;0.38;;;20.50;53.50;;;;;;6113858;23;20014;-69
2022/06/21 05:11:00;;;;;;;0.30;0.30;;;20.50;52.30;;;;;;6113288;23;20006;-68
2022/06/21 05:13:35;;;;;;;6.10;0.38;;;20.50;54.40;;;;;;6110784;23;20072;-69
2022/06/21 05:16:15;;;;;;;1.88;0.20;;;20.60;56.40;;;;;;6111067;23;20013;-72
2022/06/21 05:18:45;;;;;;;2.35;0.30;;;20.60;49.70;;;;;;6113594;23;20049;-70
2022/06/21 05:21:15;;;;;;;1.17;0.28;;;20.60;49.00;;;;;;6109441;23;20002;-70
2022/06/21 05:23:42;;;;;;;3.33;0.38;;;20.60;53.30;;;;;;6111800;23;20720;-71
2022/06/21 05:26:15;;;;;;;6.32;0.40;;;20.80;53.90;;;;;;6110444;23;20002;-70
2022/06/21 05:28:56;;;;;;;0.25;0.10;;;21.00;54.50;;;;;;6111367;23;20014;-70
2022/06/21 05:31:27;;;;;;;0.93;0.20;;;21.10;49.00;;;;;;6111092;23;20096;-71
2022/06/21 05:34:01;;;;;;;0.40;0.35;;;21.10;51.40;;;;;;6112564;23;20026;-68
2022/06/21 05:36:34;;;;;;;0.73;0.10;;;21.10;51.70;;;;;;6111573;23;20149;-68
2022/06/21 05:39:14;;;;;;;0.47;0.17;;;21.20;50.80;;;;;;6087630;23;20760;-69
2022/06/21 05:41:43;;;;;;;0.68;0.10;;;21.20;48.90;;;;;;6111964;23;20590;-69
2022/06/21 05:44:19;;;;;;;0.65;0.30;;;21.30;48.30;;;;;;6113147;23;20014;-68
2022/06/21 05:46:48;;;;;;;0.35;0.25;;;21.20;48.60;;;;;;6113755;23;19998;-68
2022/06/21 05:49:41;;;;;;;0.28;0.25;;;21.00;44.10;;;;;;6110576;23;20563;-68
2022/06/21 05:52:12;;;;;;;0.57;0.22;;;21.10;49.90;;;;;;6105577;23;20348;-69
2022/06/21 05:54:58;;;;;;;0.30;0.30;;;21.20;50.70;;;;;;6116724;23;20493;-70
2022/06/21 05:57:27;;;;;;;1.05;0.20;;;21.40;51.30;;;;;;6111675;23;20802;-71
2022/06/21 05:59:53;;;;;;;1.67;0.15;;;21.60;52.40;;;;;;6113772;23;20025;-72
2022/06/21 06:02:33;;;;;;;2.53;0.40;;;21.70;53.10;;;;;;6113529;23;20041;-72
2022/06/21 06:05:11;;;;;;;0.60;0.20;;;21.90;52.80;;;;;;6116498;23;20020;-71
2022/06/21 06:07:43;;;;;;;0.10;0.10;;;22.00;50.90;;;;;;6114665;23;20006;-71
2022/06/21 06:10:11;;;;;;;0.43;0.25;;;22.00;50.10;;;;;;6116068;23;20428;-71
2022/06/21 06:12:41;;;;;;;0.70;0.20;;;22.00;49.30;;;;;;6115202;23;20297;-68
2022/06/21 06:15:30;;;;;;;0.55;0.17;;;21.90;51.40;;;;;;6081008;23;20018;-67
2022/06/21 06:18:06;;;;;;;0.85;0.30;;;21.90;50.10;;;;;;6113123;23;20436;-67
2022/06/21 06:20:34;;;;;;;0.20;0.10;;;21.90;49.20;;;;;;6111926;23;20002;-69
2022/06/21 06:23:07;;;;;;;1.08;0.38;;;21.90;49.60;;;;;;6113378;23;20009;-68
2022/06/21 06:25:42;;;;;;;8.02;0.52;;;22.00;50.80;;;;;;6114763;23;20029;-68
2022/06/21 06:28:18;;;;;;;1.63;0.20;;;21.90;52.60;;;;;;6112284;23;20001;-69
2022/06/21 06:31:01;;;;;;;0.10;0.10;;;21.90;49.70;;;;;;6112488;23;20009;-69
2022/06/21 06:33:39;;;;;;;0.70;0.28;;;21.80;50.50;;;;;;6112283;23;20029;-72
2022/06/21 06:36:12;;;;;;;0.22;0.17;;;21.80;53.70;;;;;;6115059;23;20014;-69
2022/06/21 06:38:39;;;;;;;0.30;0.20;;;21.90;53.80;;;;;;6085975;23;20009;-71
2022/06/21 06:41:23;;;;;;;1.35;0.40;;;21.80;54.80;;;;;;6113711;23;20858;-70
2022/06/21 06:44:01;;;;;;;0.30;0.30;;;21.80;58.90;;;;;;6114238;23;20029;-69
2022/06/21 06:46:36;;;;;;;0.98;0.50;;;21.90;58.50;;;;;;6114889;23;20035;-71
2022/06/21 06:49:19;;;;;;;1.90;0.45;;;21.70;58.90;;;;;;6114159;23;19998;-70
2022/06/21 06:52:15;;;;;;;0.38;0.38;;;21.40;58.80;;;;;;6112081;23;20395;-69
2022/06/21 06:55:00;;;;;;;1.23;0.40;;;21.30;60.00;;;;;;6113899;23;20014;-68
2022/06/21 06:57:51;;;;;;;2.25;0.43;;;21.30;60.50;;;;;;6113863;23;20408;-69
2022/06/21 07:00:24;;;;;;;1.67;0.73;;;21.50;64.60;;;;;;6115299;23;20002;-69
2022/06/21 07:02:56;;;;;;;2.85;0.55;;;21.80;64.70;;;;;;6089355;23;20025;-69
2022/06/21 07:05:48;;;;;;;1.83;0.45;;;22.00;64.40;;;;;;6113261;23;20089;-69
2022/06/21 07:08:21;;;;;;;1.98;0.45;;;22.10;61.50;;;;;;6113706;23;20073;-69
2022/06/21 07:10:50;;;;;;;0.68;0.35;;;22.10;64.00;;;;;;6110260;23;20080;-72
2022/06/21 07:13:17;;;;;;;0.57;0.40;;;22.10;61.60;;;;;;6110874;23;20016;-72
2022/06/21 07:15:46;;;;;;;0.65;0.30;;;22.10;64.60;;;;;;6112941;23;20017;-72
2022/06/21 07:18:16;;;;;;;0.55;0.40;;;22.20;63.20;;;;;;6110647;23;20008;-73
2022/06/21 07:20:46;;;;;;;1.40;0.40;;;22.10;60.90;;;;;;6111904;23;20002;-71
2022/06/21 07:23:20;;;;;;;4.03;0.40;;;22.10;61.80;;;;;;6112560;23;20380;-71
2022/06/21 07:26:07;;;;;;;1.35;0.45;;;21.80;61.30;;;;;;6115210;23;20021;-70
2022/06/21 07:28:41;;;;;;;2.03;0.60;;;21.70;67.20;;;;;;6115089;23;20005;-70
2022/06/21 07:31:15;;;;;;;1.02;0.57;;;21.90;65.80;;;;;;6112490;23;20017;-71
2022/06/21 07:33:49;;;;;;;0.50;0.50;;;21.90;62.00;;;;;;6109838;23;20089;-70
2022/06/21 07:36:21;;;;;;;3.10;0.70;;;21.80;63.20;;;;;;6109802;23;20193;-71
2022/06/21 07:38:56;;;;;;;1.52;0.70;;;21.70;66.90;;;;;;6110180;23;20002;-71
2022/06/21 07:41:30;;;;;;;1.00;0.50;;;21.70;63.70;;;;;;6112106;23;20010;-70
2022/06/21 07:44:04;;;;;;;1.05;0.70;;;21.80;68.00;;;;;;6113041;23;20108;-72
2022/06/21 07:46:37;;;;;;;0.50;0.50;;;21.90;63.60;;;;;;6112130;23;20002;-70
2022/06/21 07:49:28;;;;;;;6.43;0.50;;;22.00;64.20;;;;;;6104716;23;20392;-73
2022/06/21 07:52:08;;;;;;;1.88;0.50;;;22.00;63.00;;;;;;6111617;23;20005;-72
2022/06/21 07:55:06;;;;;;;0.43;0.43;;;21.80;69.50;;;;;;6111902;23;20016;-71
2022/06/21 07:57:37;;;;;;;1.27;0.50;;;21.90;63.50;;;;;;6096839;23;20010;-71
2022/06/21 08:00:15;;;;;;;1.35;0.50;;;22.00;63.40;;;;;;6113365;23;20008;-72
2022/06/21 08:08:40;;;;;;;1.00;0.70;;;22.00;63.20;;;;;;6110512;23;20020;-68
2022/06/21 08:11:17;;;;;;;0.80;0.40;;;22.20;60.40;;;;;;6113253;23;20804;-68
2022/06/21 08:13:44;;;;;;;0.77;0.50;;;22.10;59.60;;;;;;6110950;23;20069;-74
2022/06/21 08:16:19;;;;;;;1.40;0.40;;;22.10;58.80;;;;;;6111963;23;20100;-68
2022/06/21 08:18:58;;;;;;;1.25;0.30;;;22.10;60.90;;;;;;6107739;23;20495;-69
2022/06/21 08:21:35;;;;;;;0.95;0.47;;;22.20;59.50;;;;;;6109972;23;20010;-69
2022/06/21 08:24:10;;;;;;;2.45;0.43;;;22.20;61.40;;;;;;6109590;23;20375;-68
2022/06/21 08:26:43;;;;;;;1.02;0.50;;;22.30;59.20;;;;;;6113306;23;20009;-72
2022/06/21 08:29:15;;;;;;;1.27;0.50;;;22.10;59.70;;;;;;6088273;23;20109;-72
2022/06/21 08:31:49;;;;;;;1.75;0.50;;;22.20;63.40;;;;;;6082531;23;20117;-71
2022/06/21 08:34:32;;;;;;;0.93;0.35;;;22.10;58.40;;;;;;6111191;23;20055;-71
2022/06/21 08:37:13;;;;;;;0.50;0.43;;;21.80;57.10;;;;;;6115190;23;20096;-73
2022/06/21 08:40:24;;;;;;;1.88;0.30;;;21.70;57.30;;;;;;6114038;23;20016;-69
2022/06/21 08:43:08;;;;;;;0.82;0.40;;;21.60;57.90;;;;;;6113499;23;20010;-70
2022/06/21 08:45:43;;;;;;;1.58;0.28;;;21.70;57.60;;;;;;6112036;23;20008;-68
2022/06/21 08:48:42;;;;;;;1.10;0.30;;;21.80;58.00;;;;;;6112183;23;20006;-71
2022/06/21 08:51:23;;;;;;;0.63;0.40;;;21.90;58.40;;;;;;6112180;23;20002;-68
2022/06/21 08:54:12;;;;;;;4.10;0.60;;;22.00;59.90;;;;;;6113868;23;19994;-70
2022/06/21 08:56:59;;;;;;;2.00;0.60;;;22.10;58.50;;;;;;6114371;23;20021;-70
2022/06/21 08:59:43;;;;;;;5.25;0.50;;;22.10;57.80;;;;;;6115283;23;20060;-72
2022/06/21 09:02:46;;;;;;;0.80;0.45;;;22.10;58.20;;;;;;6112810;23;20002;-69
2022/06/21 09:05:51;;;;;;;1.75;1.05;;;22.00;58.00;;;;;;6113955;23;20712;-69
2022/06/21 09:08:53;;;;;;;1.48;0.52;;;22.10;60.90;;;;;;6110638;23;20033;-71
2022/06/21 09:11:33;;;;;;;3.28;0.63;;;22.30;63.00;;;;;;6113762;23;20009;-69
2022/06/21 09:14:22;;;;;;;2.65;0.50;;;22.30;61.60;;;;;;6114346;23;20009;-70
2022/06/21 09:16:58;;;;;;;1.13;0.43;;;22.50;61.60;;;;;;6115368;23;20010;-71
2022/06/21 09:19:33;;;;;;;5.07;0.55;;;22.50;60.70;;;;;;6112791;23;19998;-69
2022/06/21 09:22:19;;;;;;;0.63;0.40;;;22.50;57.70;;;;;;6089716;23;20052;-68
2022/06/21 09:24:58;;;;;;;2.22;0.52;;;22.40;57.50;;;;;;6113282;23;20021;-68
2022/06/21 09:27:28;;;;;;;4.03;0.50;;;22.40;61.10;;;;;;6111609;23;20006;-70
2022/06/21 09:30:03;;;;;;;3.78;0.68;;;22.50;60.70;;;;;;6115672;23;20006;-69
2022/06/21 09:33:02;;;;;;;0.98;0.52;;;22.50;59.50;;;;;;6112148;23;20006;-67
2022/06/21 09:36:06;;;;;;;2.40;0.43;;;22.60;59.60;;;;;;6112518;23;20018;-69
2022/06/21 09:39:02;;;;;;;1.92;0.60;;;22.70;59.20;;;;;;6113898;23;20002;-68
2022/06/21 09:41:40;;;;;;;2.53;0.50;;;22.70;58.10;;;;;;6112845;23;20013;-69
2022/06/21 09:44:17;;;;;;;0.65;0.45;;;22.70;59.70;;;;;;6114481;23;20013;-68
2022/06/21 09:47:18;;;;;;;1.83;0.60;;;22.80;57.30;;;;;;6113574;23;20002;-70
2022/06/21 09:49:48;;;;;;;1.92;0.57;;;22.80;60.60;;;;;;6112950;23;20085;-69
2022/06/21 09:52:20;;;;;;;1.40;0.40;;;23.00;61.80;;;;;;6085130;23;20443;-70
2022/06/21 09:55:01;;;;;;;2.20;0.47;;;23.20;60.40;;;;;;6116813;23;20063;-73
2022/06/21 09:57:26;;;;;;;3.03;0.68;;;23.20;57.60;;;;;;6117717;23;20002;-70
2022/06/21 10:00:02;;;;;;;3.78;0.55;;;23.00;56.60;;;;;;6113386;23;20033;-69
2022/06/21 10:02:55;;;;;;;1.98;0.30;;;23.00;56.90;;;;;;6113781;23;20005;-70
2022/06/21 10:05:30;;;;;;;0.70;0.50;;;23.00;55.50;;;;;;6114544;23;20088;-68
2022/06/21 10:08:17;;;;;;;3.55;0.40;;;22.90;56.00;;;;;;6116470;23;20199;-69
2022/06/21 10:11:01;;;;;;;1.52;0.40;;;22.80;52.80;;;;;;6110247;23;20085;-68
2022/06/21 10:13:58;;;;;;;1.20;0.30;;;22.70;54.60;;;;;;6114165;23;20001;-69
2022/06/21 10:16:55;;;;;;;0.25;0.20;;;22.70;58.80;;;;;;6111446;23;20072;-70
2022/06/21 10:19:35;;;;;;;1.25;0.50;;;22.80;55.00;;;;;;6113841;23;20005;-68
2022/06/21 10:22:39;;;;;;;4.72;0.40;;;22.90;54.90;;;;;;6114933;23;20065;-71
2022/06/21 10:25:17;;;;;;;2.15;0.40;;;22.90;53.50;;;;;;6088968;23;20010;-70
2022/06/21 10:27:58;;;;;;;2.47;0.40;;;22.80;56.30;;;;;;6113332;23;20088;-71
2022/06/21 10:30:51;;;;;;;0.40;0.20;;;22.90;55.50;;;;;;6118003;23;20081;-72
2022/06/21 10:33:27;;;;;;;0.65;0.30;;;22.80;56.30;;;;;;6116840;23;20033;-72
2022/06/21 10:36:08;;;;;;;2.35;0.30;;;23.00;54.90;;;;;;6123059;23;20057;-69
2022/06/21 10:39:12;;;;;;;3.53;0.45;;;23.00;54.10;;;;;;6093930;23;20014;-71
2022/06/21 10:42:46;;;;;;;1.00;0.30;;;22.90;56.40;;;;;;5998555;23;20044;-67
2022/06/21 10:44:45;;;;;;;1.08;0.40;;;22.90;55.10;;;;;;6115112;23;20751;-68
2022/06/21 10:47:35;;;;;;;3.13;0.57;;;22.90;54.60;;;;;;6114476;23;20010;-67
2022/06/21 10:50:42;;;;;;;0.30;0.30;;;23.00;57.20;;;;;;6113144;23;20022;-69
2022/06/21 10:53:40;;;;;;;1.00;0.28;;;23.30;59.20;;;;;;6114799;23;20010;-70
2022/06/21 11:01:16;;;;;;;0.65;0.35;;;23.60;56.80;;;;;;6117407;23;20032;-69
2022/06/21 11:02:42;;;;;;;2.00;0.52;;;23.50;56.90;;;;;;6115932;23;20014;-67
2022/06/21 11:05:36;;;;;;;2.33;0.30;;;23.50;57.30;;;;;;6117106;23;20006;-69
2022/06/21 11:08:39;;;;;;;2.67;0.50;;;23.40;55.50;;;;;;6114482;23;20099;-70
2022/06/21 11:11:21;;;;;;;2.38;0.38;;;23.30;57.00;;;;;;6090087;23;20089;-68
2022/06/21 11:14:14;;;;;;;1.33;0.40;;;23.40;56.30;;;;;;6114273;23;20006;-71
2022/06/21 11:16:45;;;;;;;5.35;0.50;;;23.40;53.80;;;;;;6114676;23;20021;-69
2022/06/21 11:19:17;;;;;;;2.50;0.52;;;23.40;55.70;;;;;;6113182;23;20006;-70
2022/06/21 11:22:16;;;;;;;0.52;0.30;;;23.50;57.80;;;;;;6112507;23;20017;-70
2022/06/21 11:25:00;;;;;;;6.45;0.43;;;23.70;58.10;;;;;;6084921;23;20006;-71
2022/06/21 11:27:57;;;;;;;1.05;0.30;;;23.80;53.90;;;;;;6112381;23;20077;-70
2022/06/21 11:30:45;;;;;;;0.20;0.20;;;23.70;51.40;;;;;;6091057;23;20100;-70
2022/06/21 11:33:43;;;;;;;0.88;0.55;;;23.60;52.80;;;;;;6105868;23;20005;-70
2022/06/21 11:36:30;;;;;;;2.17;0.30;;;23.50;55.00;;;;;;6115312;23;20022;-71
2022/06/21 11:39:11;;;;;;;1.15;0.35;;;23.50;53.60;;;;;;6114909;23;20010;-72
2022/06/21 11:44:42;;;;;;;6.90;0.60;;;23.60;57.40;;;;;;6114421;23;20087;-69
2022/06/21 11:47:19;;;;;;;1.20;0.30;;;23.60;56.60;;;;;;6115316;23;20360;-72
2022/06/21 11:50:14;;;;;;;5.38;0.30;;;23.50;54.40;;;;;;6087701;23;20354;-72
2022/06/21 11:52:57;;;;;;;0.73;0.30;;;23.60;57.90;;;;;;6085035;23;20621;-70
2022/06/21 11:55:35;;;;;;;2.63;0.40;;;23.70;55.90;;;;;;6085972;23;20025;-69
2022/06/21 11:58:26;;;;;;;2.38;0.40;;;23.90;54.90;;;;;;6114755;23;20077;-70
2022/06/21 12:01:03;;;;;;;2.10;0.35;;;23.80;54.40;;;;;;6088952;23;20036;-67
2022/06/21 12:03:31;;;;;;;0.47;0.40;;;23.60;54.70;;;;;;6083756;23;20412;-69
2022/06/21 12:06:09;;;;;;;0.20;0.20;;;23.50;55.20;;;;;;6115073;23;20009;-67
2022/06/21 12:08:46;;;;;;;1.38;0.25;;;23.40;54.50;;;;;;6112341;23;20198;-67
2022/06/21 12:11:33;;;;;;;2.53;0.40;;;23.50;56.30;;;;;;6112629;23;20017;-70
2022/06/21 12:14:46;;;;;;;1.13;0.30;;;23.70;57.30;;;;;;6114725;23;20006;-71
2022/06/21 12:17:21;;;;;;;1.25;0.50;;;23.80;54.00;;;;;;6050245;23;20045;-67
2022/06/21 12:19:54;;;;;;;2.05;0.40;;;23.90;56.60;;;;;;6114928;23;20545;-66
2022/06/21 12:22:29;;;;;;;3.42;0.50;;;23.90;55.40;;;;;;6112907;23;19998;-69
2022/06/21 12:24:55;;;;;;;0.55;0.40;;;23.80;53.00;;;;;;6113977;23;20309;-66
2022/06/21 12:27:22;;;;;;;0.55;0.30;;;23.70;55.40;;;;;;6112106;23;20006;-70
2022/06/21 12:29:47;;;;;;;2.15;0.50;;;23.80;58.30;;;;;;6112343;23;20005;-67
2022/06/21 12:32:20;;;;;;;0.98;0.25;;;23.80;56.00;;;;;;6111945;23;19998;-72
2022/06/21 12:35:01;;;;;;;3.97;0.40;;;23.90;54.50;;;;;;6111547;23;20032;-72
2022/06/21 12:37:59;;;;;;;2.33;0.30;;;24.00;53.70;;;;;;6111183;23;19998;-69
2022/06/21 12:40:45;;;;;;;0.47;0.20;;;24.00;54.00;;;;;;6043215;23;20010;-71
2022/06/21 12:43:16;;;;;;;0.82;0.30;;;23.90;52.30;;;;;;6084841;23;20014;-68
2022/06/21 12:46:12;;;;;;;2.67;0.30;;;23.90;54.60;;;;;;6112696;23;20009;-70
2022/06/21 12:49:06;;;;;;;2.28;0.68;;;24.00;54.30;;;;;;6083136;23;20153;-68
2022/06/21 12:51:56;;;;;;;2.40;0.40;;;24.00;55.90;;;;;;6112332;23;20439;-68
2022/06/21 12:54:50;;;;;;;1.02;0.40;;;24.10;55.20;;;;;;6111402;23;20013;-67
2022/06/21 12:57:19;;;;;;;1.77;0.32;;;24.10;55.20;;;;;;6110391;23;20014;-70
2022/06/21 12:59:58;;;;;;;1.70;0.28;;;24.20;55.00;;;;;;6110225;23;20002;-67
2022/06/21 13:02:51;;;;;;;3.42;0.40;;;24.20;54.20;;;;;;6111989;23;20008;-69
2022/06/21 13:05:32;;;;;;;3.55;0.47;;;24.10;54.50;;;;;;6112459;23;20010;-69
2022/06/21 13:08:25;;;;;;;1.00;0.40;;;24.10;55.40;;;;;;6087828;23;20363;-67
2022/06/21 13:11:00;;;;;;;0.50;0.20;;;24.00;54.30;;;;;;6113162;23;20017;-68
2022/06/21 13:13:53;;;;;;;0.90;0.30;;;24.00;56.00;;;;;;6110292;23;20006;-72
2022/06/21 13:16:31;;;;;;;5.20;0.55;;;24.10;54.10;;;;;;6110455;23;20112;-69
2022/06/21 13:19:25;;;;;;;0.45;0.32;;;24.00;54.10;;;;;;6112427;23;20010;-71
2022/06/21 13:22:01;;;;;;;0.73;0.38;;;24.10;55.70;;;;;;6086462;23;20200;-70
2022/06/21 13:24:27;;;;;;;0.25;0.22;;;24.10;56.40;;;;;;6082961;23;20271;-69
2022/06/21 13:26:55;;;;;;;1.58;0.30;;;24.30;54.40;;;;;;6087412;23;20021;-70
2022/06/21 13:29:29;;;;;;;0.70;0.20;;;24.30;54.90;;;;;;6112857;23;20010;-70
2022/06/21 13:32:00;;;;;;;0.30;0.30;;;24.30;52.90;;;;;;6111498;23;20219;-69
2022/06/21 14:34:59;;;;;;;1.55;0.40;;;24.10;52.60;;;;;;6119891;23;20533;-66
2022/06/21 14:37:54;;;;;;;1.88;0.20;;;24.10;51.50;;;;;;6103408;23;20033;-68
2022/06/21 14:40:40;;;;;;;3.63;0.45;;;24.20;53.50;;;;;;6088768;23;20013;-70
2022/06/21 14:43:23;;;;;;;0.63;0.20;;;24.20;51.30;;;;;;6111097;23;20180;-69
2022/06/21 14:46:00;;;;;;;0.80;0.30;;;24.10;53.00;;;;;;6107914;23;20562;-68
2022/06/21 14:48:38;;;;;;;0.90;0.30;;;24.00;51.90;;;;;;6110119;23;20033;-70
2022/06/21 14:51:41;;;;;;;3.08;0.98;;;23.90;52.10;;;;;;6113863;23;20421;-69
2022/06/21 14:54:39;;;;;;;0.43;0.30;;;23.70;52.80;;;;;;6113929;23;20010;-68
2022/06/21 14:57:42;;;;;;;0.73;0.40;;;23.70;53.10;;;;;;6116310;23;20042;-69
2022/06/21 15:00:30;;;;;;;1.70;0.40;;;23.70;52.40;;;;;;6112597;23;20006;-68
2022/06/21 15:03:18;;;;;;;0.73;0.20;;;23.70;52.60;;;;;;6111702;23;20018;-69